• Join FlightAware (Why Join?)
  • Login
  • US Flag 
03:33AM EDT


 

Airport Tracker/Info


-or-


 

Live Flight TrackerFlight Track Log ✈ VH-LTC ✈ 24-Jul-2013 ✈ YBCS / CNS - YBMA / ISA

Flight Track Log - Related Links

Times and Time Zones

All times are in EDT time to prevent confusion due to time zone crossing. See the VH-LTC flight status page for this flight to view local times or setup timezone preferences in your user account.

Time Position Orientation Groundspeed Altitude Reporting Facility
EDT Latitude Longitude Course Direction KTS MPH feet Rate Location/Type
08:17PM -16.9163 145.7668 155° Southeast 71 82 1,300  Level Aus ATC (RADAR)
08:19PM -16.9445 145.7807 155° Southeast 78 90 1,800 420 Climbing Aus ATC (RADAR)
08:20PM -16.9633 145.7905 154° Southeast 73 84 2,400 540 Climbing Aus ATC (RADAR)
08:21PM -16.9799 145.7992 153° Southeast 79 91 2,800 300 Climbing Aus ATC (RADAR)
08:21PM -16.9917 145.8042 158° South 80 92 2,900 420 Climbing Aus ATC (RADAR)
08:22PM -17.0015 145.7865 240° Southwest 96 110 3,400 540 Climbing Aus ATC (RADAR)
08:23PM -17.0073 145.7732 245° Southwest 99 114 3,600 420 Climbing Aus ATC (RADAR)
08:23PM -17.0144 145.7583 243° Southwest 98 113 3,900 540 Climbing Aus ATC (RADAR)
08:24PM -17.0246 145.7407 239° Southwest 104 120 4,300 540 Climbing Aus ATC (RADAR)
08:24PM -17.0322 145.7241 244° Southwest 108 124 4,600 420 Climbing Aus ATC (RADAR)
08:25PM -17.0459 145.6948 244° Southwest 122 140 5,000 420 Climbing Aus ATC (RADAR)
08:26PM -17.0566 145.6713 245° Southwest 120 138 5,300 480 Climbing Aus ATC (RADAR)
08:27PM -17.0719 145.6424 241° Southwest 123 142 5,800 480 Climbing Aus ATC (RADAR)
08:28PM -17.0828 145.6233 239° Southwest 129 148 6,100 540 Climbing Aus ATC (RADAR)
08:28PM -17.0985 145.5982 237° Southwest 121 139 6,600 180 Climbing Aus ATC (RADAR)
08:29PM -17.1202 145.5623 238° Southwest 150 173 6,500 -120 Descending Aus ATC (RADAR)
08:30PM -17.1396 145.5314 237° Southwest 154 177 6,400  Descending Aus ATC (RADAR)
08:31PM -17.1532 145.5096 237° Southwest 153 176 6,500  Climbing Aus ATC (RADAR)
08:32PM -17.1745 145.4713 240° Southwest 154 177 6,400  Descending Aus ATC (RADAR)
08:33PM -17.1958 145.4361 238° Southwest 155 178 6,500  Climbing Aus ATC (RADAR)
08:34PM -17.2200 145.3950 238° Southwest 152 175 6,500  Level Aus ATC (RADAR)
08:35PM -17.2417 145.3604 237° Southwest 155 178 6,500  Level Aus ATC (RADAR)
08:36PM -17.2594 145.3322 237° Southwest 155 178 6,500  Level Aus ATC (RADAR)
08:36PM -17.2729 145.3096 238° Southwest 157 181 6,500  Level Aus ATC (RADAR)
08:37PM -17.2926 145.2778 237° Southwest 156 180 6,500  Level Aus ATC (RADAR)
08:38PM -17.3139 145.2429 237° Southwest 156 180 6,500 -60 Level Aus ATC (RADAR)
08:39PM -17.3337 145.2107 237° Southwest 156 180 6,400  Descending Aus ATC (RADAR)
08:40PM -17.3597 145.1697 236° Southwest 157 181 6,600  Climbing Aus ATC (RADAR)
08:40PM -17.3759 145.1441 237° Southwest 158 182 6,500 -120 Descending Aus ATC (RADAR)
08:41PM -17.3918 145.1188 237° Southwest 155 178 6,500  Level Aus ATC (RADAR)
08:42PM -17.4110 145.0867 238° Southwest 156 180 6,500 -60 Level Aus ATC (RADAR)
08:43PM -17.4310 145.0558 236° Southwest 155 178 6,400  Descending Aus ATC (RADAR)
08:44PM -17.4500 145.0239 238° Southwest 154 177 6,500  Climbing Aus ATC (RADAR)
08:45PM -17.4741 144.9831 238° Southwest 151 174 6,500  Level Aus ATC (RADAR)
08:45PM -17.4908 144.9548 238° Southwest 151 174 6,500  Level Aus ATC (RADAR)
08:46PM -17.5057 144.9293 238° Southwest 154 177 6,500 60 Level Aus ATC (RADAR)
08:47PM -17.5236 144.8979 239° Southwest 149 171 6,600  Climbing Aus ATC (RADAR)
08:48PM -17.5419 144.8661 239° Southwest 153 176 6,500 -60 Descending Aus ATC (RADAR)
08:49PM -17.5740 144.8140 237° Southwest 149 171 6,500  Level Aus ATC (RADAR)
08:50PM -17.5926 144.7800 240° Southwest 146 168 6,500  Level Aus ATC (RADAR)
08:51PM -17.6091 144.7480 241° Southwest 151 174 6,500  Level Aus ATC (RADAR)
08:52PM -17.6213 144.7271 239° Southwest 145 167 6,500  Level Aus ATC (RADAR)
08:52PM -17.6362 144.6986 241° Southwest 148 170 6,500  Level Aus ATC (RADAR)
08:54PM -17.6640 144.6494 239° Southwest 147 169 6,500 -60 Level Aus ATC (RADAR)
08:55PM -17.6824 144.6149 241° Southwest 148 170 6,400  Descending Aus ATC (RADAR)
08:55PM -17.6964 144.5900 239° Southwest 149 171 6,500 120 Climbing Aus ATC (RADAR)
08:56PM -17.7113 144.5618 241° Southwest 147 169 6,600 60 Climbing Aus ATC (RADAR)
08:57PM -17.7233 144.5401 240° Southwest 147 169 6,600 -180 Level Aus ATC (RADAR)
08:57PM -17.7417 144.5043 242° Southwest 153 176 6,400 -120 Descending Aus ATC (RADAR)
08:58PM -17.7527 144.4815 243° Southwest 150 173 6,500  Climbing Aus ATC (RADAR)
08:59PM -17.7743 144.4408 241° Southwest 148 170 6,500  Level Aus ATC (RADAR)
09:00PM -17.7889 144.4118 242° Southwest 151 174 6,600  Climbing Aus ATC (RADAR)
09:01PM -17.8093 144.3698 243° Southwest 151 174 6,500 -120 Descending Aus ATC (RADAR)
09:02PM -17.8224 144.3435 242° Southwest 152 175 6,500 60 Level Aus ATC (RADAR)
09:02PM -17.8371 144.3152 241° Southwest 147 169 6,600  Climbing Aus ATC (RADAR)
09:03PM -17.8508 144.2895 241° Southwest 151 174 6,500 -60 Descending Aus ATC (RADAR)
09:05PM -17.8857 144.2224 241° Southwest 148 170 6,500  Level Aus ATC (RADAR)
09:06PM -17.9004 144.1940 241° Southwest 148 170 6,600 60 Climbing Aus ATC (RADAR)
09:06PM -17.9111 144.1712 244° Southwest 148 170 6,600  Level Aus ATC (RADAR)
09:07PM -17.9235 144.1452 244° Southwest 149 171 6,600  Level Aus ATC (RADAR)
09:08PM -17.9468 144.1004 241° Southwest 150 173 6,600 -60 Level Aus ATC (RADAR)
09:09PM -17.9740 144.0498 240° Southwest 151 174 6,500  Descending Aus ATC (RADAR)
09:10PM -17.9850 144.0320 237° Southwest 146 168 6,600 60 Climbing Aus ATC (RADAR)
09:10PM -17.9979 144.0111 237° Southwest 145 167 6,600  Level Aus ATC (RADAR)
09:14PM -18.0885 143.8633 237° Southwest 1,100 -1,680 Descending Aus ATC (Calculated)
09:16PM -18.1298 143.7956 237° Southwest  Level FlightAware Approximate
09:17PM -18.1517 143.7596 237° Southwest  Level FlightAware Approximate
09:17PM -18.1705 143.7286 338° Northwest 1,100  Level Aus ATC (Calculated)
09:17PM -18.1705 143.7286 237° Southwest 1,100  Level Aus ATC (Calculated)
09:18PM -18.1736 143.7236 237° Southwest  Level FlightAware Approximate
09:19PM -18.2008 143.6788 237° Southwest  Level FlightAware Approximate
09:20PM -18.2227 143.6428 237° Southwest  Level FlightAware Approximate
09:21PM -18.2446 143.6068 237° Southwest  Level FlightAware Approximate
09:22PM -18.2665 143.5708 237° Southwest  Level FlightAware Approximate
09:23PM -18.2883 143.5347 237° Southwest  Level FlightAware Approximate
09:24PM -18.3102 143.4987 237° Southwest  Level FlightAware Approximate
09:25PM -18.3321 143.4626 237° Southwest  Level FlightAware Approximate
09:26PM -18.3539 143.4265 237° Southwest  Level FlightAware Approximate
09:27PM -18.3758 143.3905 237° Southwest  Level FlightAware Approximate
09:28PM -18.3976 143.3544 237° Southwest  Level FlightAware Approximate
09:29PM -18.4194 143.3183 237° Southwest  Level FlightAware Approximate
09:30PM -18.4412 143.2822 237° Southwest  Level FlightAware Approximate
09:31PM -18.4631 143.2460 238° Southwest  Level FlightAware Approximate
09:32PM -18.4849 143.2099 237° Southwest  Level FlightAware Approximate
09:33PM -18.5067 143.1738 238° Southwest  Level FlightAware Approximate
09:34PM -18.5285 143.1376 238° Southwest  Level FlightAware Approximate
09:35PM -18.5502 143.1015 238° Southwest  Level FlightAware Approximate
09:36PM -18.5720 143.0653 238° Southwest  Level FlightAware Approximate
09:37PM -18.5938 143.0291 238° Southwest  Level FlightAware Approximate
09:38PM -18.6156 142.9930 238° Southwest  Level FlightAware Approximate
09:39PM -18.6373 142.9568 238° Southwest  Level FlightAware Approximate
09:40PM -18.6591 142.9206 238° Southwest  Level FlightAware Approximate
09:41PM -18.6808 142.8844 238° Southwest  Level FlightAware Approximate
09:42PM -18.7026 142.8481 238° Southwest  Level FlightAware Approximate
09:43PM -18.7243 142.8119 238° Southwest  Level FlightAware Approximate
09:44PM -18.7460 142.7757 238° Southwest  Level FlightAware Approximate
09:45PM -18.7678 142.7395 238° Southwest  Level FlightAware Approximate
09:46PM -18.7895 142.7032 238° Southwest  Level FlightAware Approximate
09:46PM -18.8030 142.6806 238° Southwest 1,100  Level Aus ATC (Calculated)
09:48PM -18.8414 142.6165 238° Southwest  Level FlightAware Approximate
09:49PM -18.8631 142.5802 238° Southwest  Level FlightAware Approximate
09:50PM -18.8847 142.5439 238° Southwest  Level FlightAware Approximate
09:51PM -18.9064 142.5076 238° Southwest  Level FlightAware Approximate
09:52PM -18.9281 142.4713 238° Southwest  Level FlightAware Approximate
09:53PM -18.9498 142.4350 238° Southwest  Level FlightAware Approximate
09:54PM -18.9714 142.3986 238° Southwest  Level FlightAware Approximate
09:55PM -18.9930 142.3623 238° Southwest  Level FlightAware Approximate
09:56PM -19.0147 142.3259 238° Southwest  Level FlightAware Approximate
09:57PM -19.0363 142.2896 238° Southwest  Level FlightAware Approximate
09:58PM -19.0579 142.2532 238° Southwest  Level FlightAware Approximate
09:59PM -19.0796 142.2168 238° Southwest  Level FlightAware Approximate
10:00PM -19.1012 142.1804 238° Southwest  Level FlightAware Approximate
10:01PM -19.1228 142.1440 238° Southwest  Level FlightAware Approximate
10:02PM -19.1444 142.1076 238° Southwest  Level FlightAware Approximate
10:03PM -19.1660 142.0712 238° Southwest  Level FlightAware Approximate
10:04PM -19.1875 142.0348 238° Southwest  Level FlightAware Approximate
10:05PM -19.2091 141.9983 238° Southwest  Level FlightAware Approximate
10:06PM -19.2307 141.9619 238° Southwest  Level FlightAware Approximate
10:07PM -19.2523 141.9254 238° Southwest  Level FlightAware Approximate
10:08PM -19.2738 141.8890 238° Southwest  Level FlightAware Approximate
10:09PM -19.2954 141.8525 238° Southwest  Level FlightAware Approximate
10:10PM -19.3169 141.8160 238° Southwest  Level FlightAware Approximate
10:11PM -19.3384 141.7795 238° Southwest  Level FlightAware Approximate
10:12PM -19.3600 141.7430 238° Southwest  Level FlightAware Approximate
10:13PM -19.3815 141.7065 238° Southwest  Level FlightAware Approximate
10:14PM -19.4030 141.6700 238° Southwest  Level FlightAware Approximate
10:15PM -19.4245 141.6335 238° Southwest  Level FlightAware Approximate
10:16PM -19.4460 141.5969 238° Southwest  Level FlightAware Approximate
10:17PM -19.4675 141.5604 238° Southwest  Level FlightAware Approximate
10:18PM -19.4890 141.5238 238° Southwest  Level FlightAware Approximate
10:19PM -19.5104 141.4872 238° Southwest  Level FlightAware Approximate
10:20PM -19.5319 141.4507 238° Southwest  Level FlightAware Approximate
10:21PM -19.5534 141.4141 238° Southwest  Level FlightAware Approximate
10:22PM -19.5748 141.3775 238° Southwest  Level FlightAware Approximate
10:23PM -19.5963 141.3409 238° Southwest  Level FlightAware Approximate
10:24PM -19.6177 141.3042 238° Southwest  Level FlightAware Approximate
10:25PM -19.6391 141.2676 238° Southwest  Level FlightAware Approximate
10:25PM -19.6824 141.1935 258° West 1,100  Level Aus ATC (Calculated)
10:25PM -19.6824 141.1935 58° Northeast 1,100  Level Aus ATC (Calculated)
10:26PM -19.6605 141.2310 238° Southwest  Level FlightAware Approximate
10:27PM -19.7106 141.1453 238° Southwest  Level FlightAware Approximate
10:28PM -19.7320 141.1086 238° Southwest  Level FlightAware Approximate
10:29PM -19.7534 141.0719 238° Southwest  Level FlightAware Approximate
10:30PM -19.7747 141.0352 238° Southwest  Level FlightAware Approximate
10:31PM -19.7961 140.9985 238° Southwest  Level FlightAware Approximate
10:31PM -19.8060 140.9816 238° Southwest 1,100  Level Aus ATC (Calculated)
10:33PM -19.8437 140.9167 238° Southwest  Level FlightAware Approximate
10:34PM -19.8651 140.8799 238° Southwest  Level FlightAware Approximate
10:35PM -19.8864 140.8432 238° Southwest  Level FlightAware Approximate
10:36PM -19.9078 140.8065 238° Southwest  Level FlightAware Approximate
10:37PM -19.9291 140.7697 238° Southwest  Level FlightAware Approximate
10:38PM -19.9504 140.7329 238° Southwest  Level FlightAware Approximate
10:39PM -19.9717 140.6962 238° Southwest  Level FlightAware Approximate
10:40PM -19.9930 140.6594 238° Southwest  Level FlightAware Approximate
10:41PM -20.0143 140.6226 238° Southwest  Level FlightAware Approximate
10:42PM -20.0356 140.5858 238° Southwest  Level FlightAware Approximate
10:43PM -20.0569 140.5489 238° Southwest  Level FlightAware Approximate
10:44PM -20.0782 140.5121 238° Southwest  Level FlightAware Approximate
10:45PM -20.0994 140.4753 238° Southwest  Level FlightAware Approximate
10:46PM -20.1207 140.4384 238° Southwest  Level FlightAware Approximate
10:47PM -20.1420 140.4016 238° Southwest  Level FlightAware Approximate
10:48PM -20.1632 140.3647 238° Southwest  Level FlightAware Approximate
10:49PM -20.1844 140.3278 238° Southwest  Level FlightAware Approximate
10:50PM -20.2057 140.2909 238° Southwest  Level FlightAware Approximate
10:51PM -20.2269 140.2540 238° Southwest  Level FlightAware Approximate
10:52PM -20.2481 140.2171 239° Southwest  Level FlightAware Approximate
10:53PM -20.2693 140.1802 239° Southwest  Level FlightAware Approximate
10:54PM -20.2905 140.1432 239° Southwest  Level FlightAware Approximate
10:55PM -20.3117 140.1063 239° Southwest  Level FlightAware Approximate
10:56PM -20.3329 140.0694 239° Southwest  Level FlightAware Approximate
10:57PM -20.3540 140.0324 239° Southwest  Level FlightAware Approximate
10:58PM -20.3752 139.9954 239° Southwest  Level FlightAware Approximate
10:59PM -20.3964 139.9584 239° Southwest  Level FlightAware Approximate
11:00PM -20.4175 139.9214 239° Southwest  Level FlightAware Approximate
11:01PM -20.4387 139.8844 239° Southwest  Level FlightAware Approximate
11:02PM -20.4598 139.8474 239° Southwest  Level FlightAware Approximate
11:03PM -20.4809 139.8104 239° Southwest  Level FlightAware Approximate
11:04PM -20.5021 139.7733 239° Southwest  Level FlightAware Approximate
11:05PM -20.5232 139.7363 237° Southwest  Level Estimated
11:06PM -20.5443 139.6992 237° Southwest  Level Estimated
11:07PM -20.5653 139.6622 237° Southwest  Level Estimated
11:08PM -20.5864 139.6251 237° Southwest  Level Estimated
11:09PM -20.6075 139.5880 237° Southwest  Level Estimated
11:10PM -20.6286 139.5509 237° Southwest  Level Estimated
11:11PM -20.6496 139.5138 237° Southwest  Level Estimated
11:12PM -20.6639 139.4887 237° Southwest  Level FlightAware Approximate
11:13PM -20.6639 139.4886 237° Southwest  Level Estimated
11:14PM -20.6639 139.4886 237° Southwest  Level Estimated
11:15PM -20.6639 139.4886 237° Southwest  Level Estimated
11:16PM -20.6639 139.4886 237° Southwest  Level Estimated
11:17PM -20.6639 139.4886 237° Southwest  Level Estimated
11:18PM -20.6639 139.4886 237° Southwest  Level Estimated
11:19PM -20.6639 139.4886 237° Southwest  Level Estimated
11:20PM -20.6639 139.4886 237° Southwest  Level Estimated
11:21PM -20.6639 139.4886 237° Southwest  Level Estimated
11:22PM -20.6639 139.4886 237° Southwest  Level Estimated
11:23PM -20.6639 139.4886 237° Southwest  Level Estimated
11:24PM -20.6639 139.4886 237° Southwest  Level Estimated
11:25PM -20.6639 139.4886 237° Southwest  Level Estimated
11:26PM -20.6639 139.4886 237° Southwest  Level Estimated